sensor_id;sensor_type;location;lat;lon;timestamp;pressure;altitude;pressure_sealevel;temperature;humidity
33454;BME280;39400;49.744;7.012;2022-11-20T00:00:50;95414.53;;;4.49;100.00
33454;BME280;39400;49.744;7.012;2022-11-20T00:03:16;95408.38;;;4.52;100.00
33454;BME280;39400;49.744;7.012;2022-11-20T00:05:41;95406.03;;;4.50;100.00
33454;BME280;39400;49.744;7.012;2022-11-20T00:08:06;95406.03;;;4.50;100.00
33454;BME280;39400;49.744;7.012;2022-11-20T00:10:31;95417.28;;;4.49;100.00
33454;BME280;39400;49.744;7.012;2022-11-20T00:12:58;95408.81;;;4.54;100.00
33454;BME280;39400;49.744;7.012;2022-11-20T00:15:23;95414.59;;;4.52;100.00
33454;BME280;39400;49.744;7.012;2022-11-20T00:17:48;95406.72;;;4.44;100.00
33454;BME280;39400;49.744;7.012;2022-11-20T00:20:14;95412.16;;;4.44;100.00
33454;BME280;39400;49.744;7.012;2022-11-20T00:22:39;95412.16;;;4.44;100.00
33454;BME280;39400;49.744;7.012;2022-11-20T00:25:05;95414.88;;;4.44;100.00
33454;BME280;39400;49.744;7.012;2022-11-20T00:27:30;95417.59;;;4.44;100.00
33454;BME280;39400;49.744;7.012;2022-11-20T00:29:56;95425.78;;;4.44;100.00
33454;BME280;39400;49.744;7.012;2022-11-20T00:32:21;95425.38;;;4.45;100.00
33454;BME280;39400;49.744;7.012;2022-11-20T00:34:46;95420.78;;;4.49;100.00
33454;BME280;39400;49.744;7.012;2022-11-20T00:37:12;95416.06;;;4.46;100.00
33454;BME280;39400;49.744;7.012;2022-11-20T00:39:37;95413.81;;;4.52;100.00
33454;BME280;39400;49.744;7.012;2022-11-20T00:42:02;95411.72;;;4.42;100.00
33454;BME280;39400;49.744;7.012;2022-11-20T00:44:28;95405.59;;;4.48;100.00
33454;BME280;39400;49.744;7.012;2022-11-20T00:46:53;95409.78;;;4.42;100.00
33454;BME280;39400;49.744;7.012;2022-11-20T00:49:18;95409.00;;;4.42;100.00
33454;BME280;39400;49.744;7.012;2022-11-20T00:51:44;95401.91;;;4.34;100.00
33454;BME280;39400;49.744;7.012;2022-11-20T00:54:09;95403.47;;;4.35;100.00
33454;BME280;39400;49.744;7.012;2022-11-20T00:56:34;95412.34;;;4.32;100.00
33454;BME280;39400;49.744;7.012;2022-11-20T00:59:00;95406.56;;;4.33;100.00
33454;BME280;39400;49.744;7.012;2022-11-20T01:01:26;95411.88;;;4.26;100.00
33454;BME280;39400;49.744;7.012;2022-11-20T01:03:53;95415.84;;;4.32;100.00
33454;BME280;39400;49.744;7.012;2022-11-20T01:08:54;95414.44;;;4.42;100.00
33454;BME280;39400;49.744;7.012;2022-11-20T01:11:26;95409.53;;;4.51;100.00
33454;BME280;39400;49.744;7.012;2022-11-20T01:13:53;95409.78;;;4.42;100.00
33454;BME280;39400;49.744;7.012;2022-11-20T01:16:24;95414.06;;;4.43;100.00
33454;BME280;39400;49.744;7.012;2022-11-20T01:18:53;95414.44;;;4.42;100.00
33454;BME280;39400;49.744;7.012;2022-11-20T01:21:32;95406.72;;;4.44;100.00
33454;BME280;39400;49.744;7.012;2022-11-20T01:23:58;95412.88;;;4.41;100.00
33454;BME280;39400;49.744;7.012;2022-11-20T01:26:29;95421.44;;;4.43;100.00
33454;BME280;39400;49.744;7.012;2022-11-20T01:28:56;95416.75;;;4.40;100.00
33454;BME280;39400;49.744;7.012;2022-11-20T01:31:30;95424.19;;;4.43;100.00
33454;BME280;39400;49.744;7.012;2022-11-20T01:33:57;95416.00;;;4.43;100.00
33454;BME280;39400;49.744;7.012;2022-11-20T01:36:26;95423.03;;;4.44;100.00
33454;BME280;39400;49.744;7.012;2022-11-20T01:39:03;95421.88;;;4.45;100.00
33454;BME280;39400;49.744;7.012;2022-11-20T01:41:30;95426.91;;;4.43;100.00
33454;BME280;39400;49.744;7.012;2022-11-20T01:43:56;95414.78;;;4.37;100.00
33454;BME280;39400;49.744;7.012;2022-11-20T01:46:21;95420.53;;;4.32;100.00
33454;BME280;39400;49.744;7.012;2022-11-20T01:54:08;95419.06;;;4.38;100.00
33454;BME280;39400;49.744;7.012;2022-11-20T01:56:38;95415.06;;;4.32;100.00
33454;BME280;39400;49.744;7.012;2022-11-20T01:59:07;95417.41;;;4.29;100.00
33454;BME280;39400;49.744;7.012;2022-11-20T02:01:34;95410.06;;;4.34;100.00
33454;BME280;39400;49.744;7.012;2022-11-20T02:03:59;95412.06;;;4.37;100.00
33454;BME280;39400;49.744;7.012;2022-11-20T02:06:29;95410.50;;;4.39;100.00
33454;BME280;39400;49.744;7.012;2022-11-20T02:08:56;95405.06;;;4.39;100.00
33454;BME280;39400;49.744;7.012;2022-11-20T02:11:21;95407.34;;;4.34;100.00
33454;BME280;39400;49.744;7.012;2022-11-20T02:13:48;95400.53;;;4.47;100.00
33454;BME280;39400;49.744;7.012;2022-11-20T02:16:15;95406.63;;;4.37;100.00
33454;BME280;39400;49.744;7.012;2022-11-20T02:18:42;95398.13;;;4.42;100.00
33454;BME280;39400;49.744;7.012;2022-11-20T02:26:25;95407.00;;;4.39;100.00
33454;BME280;39400;49.744;7.012;2022-11-20T02:28:52;95398.03;;;4.35;100.00
33454;BME280;39400;49.744;7.012;2022-11-20T02:31:17;95403.03;;;4.33;100.00
33454;BME280;39400;49.744;7.012;2022-11-20T02:33:43;95406.56;;;4.33;100.00
33454;BME280;39400;49.744;7.012;2022-11-20T02:36:11;95400.00;;;4.38;100.00
33454;BME280;39400;49.744;7.012;2022-11-20T02:38:39;95398.34;;;4.29;100.00
33454;BME280;39400;49.744;7.012;2022-11-20T02:41:05;95404.63;;;4.34;100.00
33454;BME280;39400;49.744;7.012;2022-11-20T02:43:30;95396.34;;;4.26;100.00
33454;BME280;39400;49.744;7.012;2022-11-20T02:45:55;95406.50;;;4.29;100.00
33454;BME280;39400;49.744;7.012;2022-11-20T02:48:21;95398.34;;;4.29;100.00
33454;BME280;39400;49.744;7.012;2022-11-20T02:50:46;95397.91;;;4.27;100.00
33454;BME280;39400;49.744;7.012;2022-11-20T02:53:11;95398.75;;;4.32;100.00
33454;BME280;39400;49.744;7.012;2022-11-20T02:55:37;95405.75;;;4.33;100.00
33454;BME280;39400;49.744;7.012;2022-11-20T02:58:02;95397.19;;;4.31;100.00
33454;BME280;39400;49.744;7.012;2022-11-20T03:00:27;95394.03;;;4.28;100.00
33454;BME280;39400;49.744;7.012;2022-11-20T03:02:53;95397.19;;;4.31;100.00
33454;BME280;39400;49.744;7.012;2022-11-20T03:05:18;95391.75;;;4.31;100.00
33454;BME280;39400;49.744;7.012;2022-11-20T03:07:43;95384.31;;;4.27;100.00
33454;BME280;39400;49.744;7.012;2022-11-20T03:10:09;95382.31;;;4.24;100.00
33454;BME280;39400;49.744;7.012;2022-11-20T03:12:34;95376.09;;;4.24;100.00
33454;BME280;39400;49.744;7.012;2022-11-20T03:15:00;95387.03;;;4.27;100.00
33454;BME280;39400;49.744;7.012;2022-11-20T03:17:25;95385.41;;;4.23;100.00
33454;BME280;39400;49.744;7.012;2022-11-20T03:19:50;95386.16;;;4.20;100.00
33454;BME280;39400;49.744;7.012;2022-11-20T03:22:16;95390.88;;;4.23;100.00
33454;BME280;39400;49.744;7.012;2022-11-20T03:24:41;95386.66;;;4.29;100.00
33454;BME280;39400;49.744;7.012;2022-11-20T03:27:06;95386.94;;;4.20;100.00
33454;BME280;39400;49.744;7.012;2022-11-20T03:29:32;95379.50;;;4.17;100.00
33454;BME280;39400;49.744;7.012;2022-11-20T03:31:57;95381.50;;;4.20;100.00
33454;BME280;39400;49.744;7.012;2022-11-20T03:34:22;95378.66;;;4.13;100.00
33454;BME280;39400;49.744;7.012;2022-11-20T03:36:47;95383.66;;;4.11;100.00
33454;BME280;39400;49.744;7.012;2022-11-20T03:39:13;95376.97;;;4.05;100.00
33454;BME280;39400;49.744;7.012;2022-11-20T03:41:40;95381.38;;;4.13;100.00
33454;BME280;39400;49.744;7.012;2022-11-20T03:44:07;95385.00;;;4.21;100.00
33454;BME280;39400;49.744;7.012;2022-11-20T03:46:33;95379.16;;;4.22;100.00
33454;BME280;39400;49.744;7.012;2022-11-20T03:48:59;95390.19;;;4.29;100.00
33454;BME280;39400;49.744;7.012;2022-11-20T03:51:26;95373.03;;;4.29;100.00
33454;BME280;39400;49.744;7.012;2022-11-20T03:53:54;95374.69;;;4.34;100.00
33454;BME280;39400;49.744;7.012;2022-11-20T03:56:23;95369.97;;;4.31;100.00
33454;BME280;39400;49.744;7.012;2022-11-20T03:58:48;95360.56;;;4.24;100.00
33454;BME280;39400;49.744;7.012;2022-11-20T04:01:16;95368.81;;;4.32;100.00
33454;BME280;39400;49.744;7.012;2022-11-20T04:03:42;95369.25;;;4.34;100.00
33454;BME280;39400;49.744;7.012;2022-11-20T04:06:10;95369.59;;;4.32;100.00
33454;BME280;39400;49.744;7.012;2022-11-20T04:08:36;95372.25;;;4.28;100.00
33454;BME280;39400;49.744;7.012;2022-11-20T04:11:19;95372.31;;;4.32;100.00
33454;BME280;39400;49.744;7.012;2022-11-20T04:13:50;95364.53;;;4.31;100.00
33454;BME280;39400;49.744;7.012;2022-11-20T04:16:16;95373.91;;;4.33;100.00
33454;BME280;39400;49.744;7.012;2022-11-20T04:18:42;95363.06;;;4.37;100.00
33454;BME280;39400;49.744;7.012;2022-11-20T04:21:08;95367.66;;;4.33;100.00
33454;BME280;39400;49.744;7.012;2022-11-20T04:23:33;95367.66;;;4.33;100.00
33454;BME280;39400;49.744;7.012;2022-11-20T04:26:07;95362.97;;;4.29;100.00
33454;BME280;39400;49.744;7.012;2022-11-20T04:28:32;95369.28;;;4.37;100.00
33454;BME280;39400;49.744;7.012;2022-11-20T04:31:05;95383.34;;;4.43;100.00
33454;BME280;39400;49.744;7.012;2022-11-20T04:33:32;95376.78;;;4.44;100.00
33454;BME280;39400;49.744;7.012;2022-11-20T04:36:11;95371.72;;;4.46;100.00
33454;BME280;39400;49.744;7.012;2022-11-20T04:38:37;95383.03;;;4.48;100.00
33454;BME280;39400;49.744;7.012;2022-11-20T04:41:05;95376.97;;;4.58;100.00
33454;BME280;39400;49.744;7.012;2022-11-20T04:43:31;95380.41;;;4.55;100.00
33454;BME280;39400;49.744;7.012;2022-11-20T04:45:58;95380.50;;;4.62;100.00
33454;BME280;39400;49.744;7.012;2022-11-20T04:48:25;95367.72;;;4.66;100.00
33454;BME280;39400;49.744;7.012;2022-11-20T04:50:51;95376.63;;;4.63;100.00
33454;BME280;39400;49.744;7.012;2022-11-20T04:53:17;95377.00;;;4.62;100.00
33454;BME280;39400;49.744;7.012;2022-11-20T04:55:43;95376.22;;;4.61;100.00
33454;BME280;39400;49.744;7.012;2022-11-20T04:58:09;95367.28;;;4.61;100.00
33454;BME280;39400;49.744;7.012;2022-11-20T05:00:34;95369.63;;;4.62;100.00
33454;BME280;39400;49.744;7.012;2022-11-20T05:03:00;95378.94;;;4.61;100.00
33454;BME280;39400;49.744;7.012;2022-11-20T05:05:25;95386.78;;;4.66;100.00
33454;BME280;39400;49.744;7.012;2022-11-20T05:07:50;95373.56;;;4.65;100.00
33454;BME280;39400;49.744;7.012;2022-11-20T05:10:16;95372.00;;;4.67;100.00
33454;BME280;39400;49.744;7.012;2022-11-20T05:12:41;95375.16;;;4.69;100.00
33454;BME280;39400;49.744;7.012;2022-11-20T05:15:07;95379.88;;;4.72;100.00
33454;BME280;39400;49.744;7.012;2022-11-20T05:17:32;95368.06;;;4.61;100.00
33454;BME280;39400;49.744;7.012;2022-11-20T05:19:57;95375.16;;;4.69;100.00
33454;BME280;39400;49.744;7.012;2022-11-20T05:22:23;95373.59;;;4.68;100.00
33454;BME280;39400;49.744;7.012;2022-11-20T05:24:48;95368.88;;;4.65;100.00
33454;BME280;39400;49.744;7.012;2022-11-20T05:27:14;95369.06;;;4.80;100.00
33454;BME280;39400;49.744;7.012;2022-11-20T05:29:39;95372.44;;;4.69;100.00
33454;BME280;39400;49.744;7.012;2022-11-20T05:32:05;95369.38;;;4.74;100.00
33454;BME280;39400;49.744;7.012;2022-11-20T05:34:30;95372.09;;;4.74;100.00
33454;BME280;39400;49.744;7.012;2022-11-20T05:36:55;95373.69;;;4.75;100.00
33454;BME280;39400;49.744;7.012;2022-11-20T05:39:21;95359.56;;;4.66;100.00
33454;BME280;39400;49.744;7.012;2022-11-20T05:41:46;95375.91;;;4.66;100.00
33454;BME280;39400;49.744;7.012;2022-11-20T05:44:11;95371.13;;;4.60;100.00
33454;BME280;39400;49.744;7.012;2022-11-20T05:46:37;95378.09;;;4.57;100.00
33454;BME280;39400;49.744;7.012;2022-11-20T05:49:02;95376.53;;;4.56;100.00
33454;BME280;39400;49.744;7.012;2022-11-20T05:51:28;95378.09;;;4.57;100.00
33454;BME280;39400;49.744;7.012;2022-11-20T05:53:55;95378.06;;;4.53;100.00
33454;BME280;39400;49.744;7.012;2022-11-20T05:56:21;95375.72;;;4.52;100.00
33454;BME280;39400;49.744;7.012;2022-11-20T05:58:47;95376.88;;;4.51;100.00
33454;BME280;39400;49.744;7.012;2022-11-20T06:01:21;95372.97;;;4.52;100.00
33454;BME280;39400;49.744;7.012;2022-11-20T06:03:48;95374.97;;;4.55;100.00
33454;BME280;39400;49.744;7.012;2022-11-20T06:06:14;95379.69;;;4.58;100.00
33454;BME280;39400;49.744;7.012;2022-11-20T06:08:40;95364.03;;;4.51;100.00
33454;BME280;39400;49.744;7.012;2022-11-20T06:11:07;95380.31;;;4.48;100.00
33454;BME280;39400;49.744;7.012;2022-11-20T06:13:34;95381.09;;;4.48;100.00
33454;BME280;39400;49.744;7.012;2022-11-20T06:15:59;95374.06;;;4.44;100.00
33454;BME280;39400;49.744;7.012;2022-11-20T06:18:26;95380.28;;;4.44;100.00
33454;BME280;39400;49.744;7.012;2022-11-20T06:21:03;95386.50;;;4.45;100.00
33454;BME280;39400;49.744;7.012;2022-11-20T06:23:30;95385.66;;;4.41;100.00
33454;BME280;39400;49.744;7.012;2022-11-20T06:25:55;95388.06;;;4.46;100.00
33454;BME280;39400;49.744;7.012;2022-11-20T06:28:21;95381.88;;;4.49;100.00
33454;BME280;39400;49.744;7.012;2022-11-20T06:30:46;95375.72;;;4.52;100.00
33454;BME280;39400;49.744;7.012;2022-11-20T06:33:11;95376.34;;;4.42;100.00
33454;BME280;39400;49.744;7.012;2022-11-20T06:35:37;95369.00;;;4.46;100.00
33454;BME280;39400;49.744;7.012;2022-11-20T06:38:02;95374.16;;;4.51;100.00
33454;BME280;39400;49.744;7.012;2022-11-20T06:40:27;95380.22;;;4.41;100.00
33454;BME280;39400;49.744;7.012;2022-11-20T06:42:54;95374.00;;;4.40;100.00
33454;BME280;39400;49.744;7.012;2022-11-20T06:45:19;95373.19;;;4.40;100.00
33454;BME280;39400;49.744;7.012;2022-11-20T06:47:44;95376.03;;;4.47;100.00
33454;BME280;39400;49.744;7.012;2022-11-20T06:50:10;95384.94;;;4.44;100.00
33454;BME280;39400;49.744;7.012;2022-11-20T06:52:35;95385.66;;;4.41;100.00
33454;BME280;39400;49.744;7.012;2022-11-20T06:55:00;95384.84;;;4.37;100.00
33454;BME280;39400;49.744;7.012;2022-11-20T06:57:26;95381.78;;;4.42;100.00
33454;BME280;39400;49.744;7.012;2022-11-20T06:59:51;95396.56;;;4.41;100.00
33454;BME280;39400;49.744;7.012;2022-11-20T07:02:16;95392.72;;;4.45;100.00
33454;BME280;39400;49.744;7.012;2022-11-20T07:04:41;95392.25;;;4.40;100.00
33454;BME280;39400;49.744;7.012;2022-11-20T07:07:08;95397.38;;;4.45;100.00
33454;BME280;39400;49.744;7.012;2022-11-20T07:09:33;95395.81;;;4.44;100.00
33454;BME280;39400;49.744;7.012;2022-11-20T07:11:58;95403.56;;;4.42;100.00
33454;BME280;39400;49.744;7.012;2022-11-20T07:14:24;95404.41;;;4.46;100.00
33454;BME280;39400;49.744;7.012;2022-11-20T07:16:49;95405.97;;;4.47;100.00
33454;BME280;39400;49.744;7.012;2022-11-20T07:19:14;95399.69;;;4.43;100.00
33454;BME280;39400;49.744;7.012;2022-11-20T07:21:40;95406.81;;;4.51;100.00
33454;BME280;39400;49.744;7.012;2022-11-20T07:24:05;95408.00;;;4.53;100.00
33454;BME280;39400;49.744;7.012;2022-11-20T07:26:30;95406.47;;;4.56;100.00
33454;BME280;39400;49.744;7.012;2022-11-20T07:28:55;95419.25;;;4.52;100.00
33454;BME280;39400;49.744;7.012;2022-11-20T07:31:21;95423.53;;;4.53;100.00
33454;BME280;39400;49.744;7.012;2022-11-20T07:33:46;95414.19;;;4.50;100.00
33454;BME280;39400;49.744;7.012;2022-11-20T07:36:12;95410.75;;;4.57;100.00
33454;BME280;39400;49.744;7.012;2022-11-20T07:38:37;95411.94;;;4.56;100.00
33454;BME280;39400;49.744;7.012;2022-11-20T07:41:03;95413.19;;;4.62;100.00
33454;BME280;39400;49.744;7.012;2022-11-20T07:43:28;95426.28;;;4.53;100.00
33454;BME280;39400;49.744;7.012;2022-11-20T07:45:57;95425.03;;;4.47;100.00
33454;BME280;39400;49.744;7.012;2022-11-20T07:48:23;95427.91;;;4.58;100.00
33454;BME280;39400;49.744;7.012;2022-11-20T07:50:49;95428.63;;;4.55;100.00
33454;BME280;39400;49.744;7.012;2022-11-20T07:53:14;95429.41;;;4.55;100.00
33454;BME280;39400;49.744;7.012;2022-11-20T07:55:40;95429.38;;;4.51;100.00
33454;BME280;39400;49.744;7.012;2022-11-20T07:58:05;95434.75;;;4.48;100.00
33454;BME280;39400;49.744;7.012;2022-11-20T08:00:30;95424.38;;;4.57;100.00
33454;BME280;39400;49.744;7.012;2022-11-20T08:02:56;95434.44;;;4.53;100.00
33454;BME280;39400;49.744;7.012;2022-11-20T08:05:21;95437.22;;;4.57;100.00
33454;BME280;39400;49.744;7.012;2022-11-20T08:07:47;95439.09;;;4.52;100.00
33454;BME280;39400;49.744;7.012;2022-11-20T08:10:13;95438.13;;;4.64;100.00
33454;BME280;39400;49.744;7.012;2022-11-20T08:12:50;95430.19;;;4.56;100.00
33454;BME280;39400;49.744;7.012;2022-11-20T08:15:15;95443.50;;;4.61;100.00
33454;BME280;39400;49.744;7.012;2022-11-20T08:17:41;95453.44;;;4.49;100.00
33454;BME280;39400;49.744;7.012;2022-11-20T08:20:06;95441.78;;;4.49;100.00
33454;BME280;39400;49.744;7.012;2022-11-20T08:22:32;95447.22;;;4.49;100.00
33454;BME280;39400;49.744;7.012;2022-11-20T08:24:57;95449.53;;;4.47;100.00
33454;BME280;39400;49.744;7.012;2022-11-20T08:27:22;95464.28;;;4.46;100.00
33454;BME280;39400;49.744;7.012;2022-11-20T08:29:48;95458.88;;;4.49;100.00
33454;BME280;39400;49.744;7.012;2022-11-20T08:32:13;95459.63;;;4.46;100.00
33454;BME280;39400;49.744;7.012;2022-11-20T08:34:38;95461.25;;;4.51;100.00
33454;BME280;39400;49.744;7.012;2022-11-20T08:37:03;95450.72;;;4.49;100.00
33454;BME280;39400;49.744;7.012;2022-11-20T08:39:29;95461.16;;;4.44;100.00
33454;BME280;39400;49.744;7.012;2022-11-20T08:41:54;95463.56;;;4.49;100.00
33454;BME280;39400;49.744;7.012;2022-11-20T08:44:19;95458.84;;;4.46;100.00
33454;BME280;39400;49.744;7.012;2022-11-20T08:46:45;95457.03;;;4.57;100.00
33454;BME280;39400;49.744;7.012;2022-11-20T08:49:11;95459.13;;;4.67;100.00
33454;BME280;39400;49.744;7.012;2022-11-20T08:51:37;95462.03;;;4.51;100.00
33454;BME280;39400;49.744;7.012;2022-11-20T08:54:04;95458.09;;;4.49;100.00
33454;BME280;39400;49.744;7.012;2022-11-20T08:56:29;95452.72;;;4.52;100.00
33454;BME280;39400;49.744;7.012;2022-11-20T08:58:55;95454.16;;;4.46;100.00
33454;BME280;39400;49.744;7.012;2022-11-20T09:01:21;95462.72;;;4.45;100.00
33454;BME280;39400;49.744;7.012;2022-11-20T09:03:47;95459.84;;;4.61;100.00
33454;BME280;39400;49.744;7.012;2022-11-20T09:06:13;95461.91;;;4.71;100.00
33454;BME280;39400;49.744;7.012;2022-11-20T09:08:39;95460.00;;;4.71;100.00
33454;BME280;39400;49.744;7.012;2022-11-20T09:11:04;95462.28;;;4.69;100.00
33454;BME280;39400;49.744;7.012;2022-11-20T09:13:30;95458.41;;;4.70;100.00
33454;BME280;39400;49.744;7.012;2022-11-20T09:16:07;95473.28;;;4.76;100.00
33454;BME280;39400;49.744;7.012;2022-11-20T09:18:34;95464.63;;;4.71;100.00
33454;BME280;39400;49.744;7.012;2022-11-20T09:21:01;95468.56;;;4.73;100.00
33454;BME280;39400;49.744;7.012;2022-11-20T09:23:27;95469.72;;;4.72;100.00
33454;BME280;39400;49.744;7.012;2022-11-20T09:25:55;95465.44;;;4.71;100.00
33454;BME280;39400;49.744;7.012;2022-11-20T09:28:21;95463.75;;;4.63;100.00
33454;BME280;39400;49.744;7.012;2022-11-20T09:30:46;95467.75;;;4.69;100.00
33454;BME280;39400;49.744;7.012;2022-11-20T09:33:12;95475.06;;;4.65;100.00
33454;BME280;39400;49.744;7.012;2022-11-20T09:35:37;95489.72;;;4.57;100.00
33454;BME280;39400;49.744;7.012;2022-11-20T09:38:06;95464.81;;;4.55;100.00
33454;BME280;39400;49.744;7.012;2022-11-20T09:40:32;95470.31;;;4.59;100.00
33454;BME280;39400;49.744;7.012;2022-11-20T09:43:01;95471.31;;;4.47;100.00
33454;BME280;39400;49.744;7.012;2022-11-20T09:48:55;95466.69;;;4.51;100.00
33454;BME280;39400;49.744;7.012;2022-11-20T09:51:48;95459.66;;;4.50;100.00
33454;BME280;39400;49.744;7.012;2022-11-20T09:54:18;95463.16;;;4.47;100.00
33454;BME280;39400;49.744;7.012;2022-11-20T09:56:47;95458.16;;;4.52;100.00
33454;BME280;39400;49.744;7.012;2022-11-20T10:04:49;95463.25;;;4.54;100.00
33454;BME280;39400;49.744;7.012;2022-11-20T10:07:23;95456.66;;;4.55;100.00
33454;BME280;39400;49.744;7.012;2022-11-20T10:09:53;95455.91;;;4.58;100.00
33454;BME280;39400;49.744;7.012;2022-11-20T10:12:42;95448.28;;;4.71;100.00
33454;BME280;39400;49.744;7.012;2022-11-20T10:15:23;95437.34;;;4.94;100.00
33454;BME280;39400;49.744;7.012;2022-11-20T10:26:16;95423.81;;;5.35;100.00
33454;BME280;39400;49.744;7.012;2022-11-20T10:29:11;95427.44;;;5.46;100.00
33454;BME280;39400;49.744;7.012;2022-11-20T10:31:40;95404.09;;;5.48;100.00
33454;BME280;39400;49.744;7.012;2022-11-20T10:34:15;95402.69;;;5.62;100.00
33454;BME280;39400;49.744;7.012;2022-11-20T10:36:49;95406.19;;;5.62;100.00
33454;BME280;39400;49.744;7.012;2022-11-20T10:39:18;95402.72;;;5.65;100.00
33454;BME280;39400;49.744;7.012;2022-11-20T10:41:50;95402.69;;;5.62;100.00
33454;BME280;39400;49.744;7.012;2022-11-20T10:44:20;95412.94;;;5.76;100.00
33454;BME280;39400;49.744;7.012;2022-11-20T10:46:45;95403.72;;;5.91;100.00
33454;BME280;39400;49.744;7.012;2022-11-20T10:49:16;95396.63;;;5.83;100.00
33454;BME280;39400;49.744;7.012;2022-11-20T10:55:07;95397.88;;;6.44;100.00
33454;BME280;39400;49.744;7.012;2022-11-20T11:00:21;95400.47;;;5.78;100.00
33454;BME280;39400;49.744;7.012;2022-11-20T11:02:52;95405.81;;;5.67;100.00
33454;BME280;39400;49.744;7.012;2022-11-20T11:05:27;95391.47;;;5.33;100.00
33454;BME280;39400;49.744;7.012;2022-11-20T11:07:58;95402.28;;;5.26;100.00
33454;BME280;39400;49.744;7.012;2022-11-20T11:10:33;95398.53;;;5.04;100.00
33454;BME280;39400;49.744;7.012;2022-11-20T11:13:00;95399.66;;;4.99;100.00
33454;BME280;39400;49.744;7.012;2022-11-20T11:15:40;95412.94;;;4.74;100.00
33454;BME280;39400;49.744;7.012;2022-11-20T11:18:10;95400.00;;;4.64;100.00
33454;BME280;39400;49.744;7.012;2022-11-20T11:20:36;95404.13;;;4.85;100.00
33454;BME280;39400;49.744;7.012;2022-11-20T11:23:02;95399.50;;;4.85;100.00
33454;BME280;39400;49.744;7.012;2022-11-20T11:25:33;95394.81;;;4.86;100.00
33454;BME280;39400;49.744;7.012;2022-11-20T11:28:18;95391.09;;;5.01;100.00
33454;BME280;39400;49.744;7.012;2022-11-20T11:30:45;95395.94;;;5.15;100.00
33454;BME280;39400;49.744;7.012;2022-11-20T11:33:18;95386.41;;;4.98;100.00
33454;BME280;39400;49.744;7.012;2022-11-20T11:35:46;95383.34;;;5.03;100.00
33454;BME280;39400;49.744;7.012;2022-11-20T11:38:16;95375.66;;;5.12;100.00
33454;BME280;39400;49.744;7.012;2022-11-20T11:40:42;95374.91;;;5.15;100.00
33454;BME280;39400;49.744;7.012;2022-11-20T11:43:17;95370.91;;;5.43;100.00
33454;BME280;39400;49.744;7.012;2022-11-20T11:45:52;95369.28;;;5.35;100.00
33454;BME280;39400;49.744;7.012;2022-11-20T11:48:18;95372.03;;;5.35;100.00
33454;BME280;39400;49.744;7.012;2022-11-20T11:50:49;95370.63;;;5.52;100.00
33454;BME280;39400;49.744;7.012;2022-11-20T11:53:18;95363.63;;;5.54;100.00
33454;BME280;39400;49.744;7.012;2022-11-20T11:55:47;95361.56;;;5.85;100.00
33454;BME280;39400;49.744;7.012;2022-11-20T12:01:04;95347.19;;;6.47;100.00
33454;BME280;39400;49.744;7.012;2022-11-20T12:03:38;95356.59;;;6.53;100.00
33454;BME280;39400;49.744;7.012;2022-11-20T12:06:14;95347.13;;;7.27;100.00
33454;BME280;39400;49.744;7.012;2022-11-20T12:08:59;95341.81;;;6.64;100.00
33454;BME280;39400;49.744;7.012;2022-11-20T12:11:42;95344.97;;;6.66;100.00
33454;BME280;39400;49.744;7.012;2022-11-20T12:14:37;95341.53;;;6.11;100.00
33454;BME280;39400;49.744;7.012;2022-11-20T12:17:05;95344.72;;;6.20;100.00
33454;BME280;39400;49.744;7.012;2022-11-20T12:19:34;95337.13;;;5.99;100.00
33454;BME280;39400;49.744;7.012;2022-11-20T12:22:07;95333.19;;;6.48;100.00
33454;BME280;39400;49.744;7.012;2022-11-20T12:29:57;95330.22;;;6.12;100.00
33454;BME280;39400;49.744;7.012;2022-11-20T12:32:57;95324.44;;;6.21;100.00
33454;BME280;39400;49.744;7.012;2022-11-20T12:43:19;95310.72;;;6.10;100.00
33454;BME280;39400;49.744;7.012;2022-11-20T12:48:37;95313.66;;;5.43;100.00
33454;BME280;39400;49.744;7.012;2022-11-20T12:51:18;95311.25;;;5.31;100.00
33454;BME280;39400;49.744;7.012;2022-11-20T12:54:09;95316.69;;;5.31;100.00
33454;BME280;39400;49.744;7.012;2022-11-20T12:56:53;95304.03;;;5.12;100.00
33454;BME280;39400;49.744;7.012;2022-11-20T13:07:25;95295.44;;;5.06;100.00
33454;BME280;39400;49.744;7.012;2022-11-20T13:09:52;95289.13;;;5.02;100.00
33454;BME280;39400;49.744;7.012;2022-11-20T13:17:52;95273.16;;;4.97;100.00
33454;BME280;39400;49.744;7.012;2022-11-20T13:20:20;95272.78;;;5.02;100.00
33454;BME280;39400;49.744;7.012;2022-11-20T13:22:51;95266.53;;;4.98;100.00
33454;BME280;39400;49.744;7.012;2022-11-20T13:27:49;95273.88;;;4.94;100.00
33454;BME280;39400;49.744;7.012;2022-11-20T13:30:17;95260.94;;;4.84;100.00
33454;BME280;39400;49.744;7.012;2022-11-20T13:40:31;95246.16;;;4.85;100.00
33454;BME280;39400;49.744;7.012;2022-11-20T13:43:04;95243.09;;;4.90;100.00
33454;BME280;39400;49.744;7.012;2022-11-20T13:45:33;95249.38;;;4.94;100.00
33454;BME280;39400;49.744;7.012;2022-11-20T13:48:19;95248.50;;;4.83;100.00
33454;BME280;39400;49.744;7.012;2022-11-20T13:50:54;95246.91;;;4.78;100.00
33454;BME280;39400;49.744;7.012;2022-11-20T13:56:50;95241.38;;;4.74;100.00
33454;BME280;39400;49.744;7.012;2022-11-20T13:59:33;95247.59;;;4.71;100.00
33454;BME280;39400;49.744;7.012;2022-11-20T14:02:02;95225.00;;;4.71;100.00
33454;BME280;39400;49.744;7.012;2022-11-20T14:04:33;95220.63;;;4.59;100.00
33454;BME280;39400;49.744;7.012;2022-11-20T14:07:00;95226.88;;;4.63;100.00
33454;BME280;39400;49.744;7.012;2022-11-20T14:09:27;95221.81;;;4.62;100.00
33454;BME280;39400;49.744;7.012;2022-11-20T14:11:52;95216.38;;;4.62;100.00
33454;BME280;39400;49.744;7.012;2022-11-20T14:14:20;95217.16;;;4.62;100.00
33454;BME280;39400;49.744;7.012;2022-11-20T14:16:47;95216.72;;;4.60;100.00
33454;BME280;39400;49.744;7.012;2022-11-20T14:21:52;95203.00;;;4.49;100.00
33454;BME280;39400;49.744;7.012;2022-11-20T14:24:20;95202.63;;;4.47;100.00
33454;BME280;39400;49.744;7.012;2022-11-20T14:26:46;95204.13;;;4.45;100.00
33454;BME280;39400;49.744;7.012;2022-11-20T14:29:14;95208.03;;;4.44;100.00